createdAt,value
2022-08-05T00:06:30.732Z,4.13
2022-08-05T00:16:36.592Z,3.77
2022-08-05T00:26:54.629Z,3.90
2022-08-05T00:37:10.848Z,3.95
2022-08-05T00:47:16.359Z,3.40
2022-08-05T00:57:17.937Z,3.92
2022-08-05T01:07:31.666Z,3.42
2022-08-05T01:17:43.963Z,2.65
2022-08-05T01:27:55.398Z,2.78
2022-08-05T01:38:00.680Z,2.65
2022-08-05T01:48:03.882Z,3.35
2022-08-05T01:58:15.776Z,2.42
2022-08-05T02:08:30.654Z,2.67
2022-08-05T02:18:42.835Z,2.90
2022-08-05T02:28:46.314Z,2.85
2022-08-05T02:38:53.116Z,2.20
2022-08-05T02:48:57.000Z,2.90
2022-08-05T02:59:00.357Z,2.50
2022-08-05T03:09:02.196Z,2.47
2022-08-05T03:19:16.967Z,3.03
2022-08-05T03:39:58.680Z,4.05
2022-08-05T03:50:00.962Z,4.70
2022-08-05T04:00:09.175Z,3.80
2022-08-05T04:10:17.525Z,4.15
2022-08-05T04:20:22.126Z,4.15
2022-08-05T04:30:24.761Z,4.30
2022-08-05T04:40:28.027Z,4.68
2022-08-05T04:50:34.407Z,3.40
2022-08-05T05:00:39.868Z,4.25
2022-08-05T05:10:55.792Z,4.40
2022-08-05T05:20:58.489Z,4.53
2022-08-05T05:31:00.141Z,5.05
2022-08-05T05:41:02.034Z,6.35
2022-08-05T05:51:15.289Z,6.05
2022-08-05T06:01:17.514Z,5.13
2022-08-05T06:11:24.968Z,5.40
2022-08-05T06:21:35.865Z,4.50
2022-08-05T06:41:43.520Z,4.32
2022-08-05T06:51:47.263Z,4.65
2022-08-05T07:01:48.718Z,4.05
2022-08-05T07:11:54.487Z,3.95
2022-08-05T07:22:00.510Z,3.10
2022-08-05T07:32:03.979Z,3.90
2022-08-05T07:42:13.588Z,3.53
2022-08-05T08:02:26.637Z,3.35
2022-08-05T08:12:49.331Z,3.45
2022-08-05T08:22:55.999Z,2.70
2022-08-05T08:32:57.431Z,3.00
2022-08-05T08:45:21.359Z,2.50
2022-08-05T08:53:24.636Z,2.15
2022-08-05T09:03:28.787Z,2.33
2022-08-05T09:14:09.610Z,3.10
2022-08-05T09:24:08.779Z,2.83
2022-08-05T09:34:13.029Z,2.80
2022-08-05T09:44:33.108Z,2.25
2022-08-05T09:54:34.529Z,2.25
2022-08-05T10:04:38.303Z,3.28
2022-08-05T10:14:40.801Z,3.67
2022-08-05T10:24:46.480Z,3.47
2022-08-05T10:34:52.555Z,2.10
2022-08-05T10:44:56.259Z,2.22
2022-08-05T10:55:07.062Z,1.75
2022-08-05T11:05:10.235Z,1.70
2022-08-05T11:16:00.100Z,2.00
2022-08-05T11:26:28.996Z,1.77
2022-08-05T11:36:43.915Z,2.33
2022-08-05T11:47:09.983Z,2.58
2022-08-05T11:57:25.352Z,3.15
2022-08-05T12:08:04.394Z,2.78
2022-08-05T12:18:03.708Z,2.47
2022-08-05T12:28:05.895Z,2.80
2022-08-05T12:38:07.446Z,2.63
2022-08-05T12:48:26.959Z,2.45
2022-08-05T12:58:51.004Z,2.15
2022-08-05T13:08:54.984Z,2.20
2022-08-05T13:18:58.390Z,1.88
2022-08-05T13:29:00.698Z,2.50
2022-08-05T13:39:08.404Z,2.28
2022-08-05T13:49:25.843Z,2.25
2022-08-05T13:59:30.880Z,2.20
2022-08-05T14:09:34.185Z,2.35
2022-08-05T14:19:56.147Z,2.00
2022-08-05T14:29:59.165Z,2.92
2022-08-05T14:40:00.722Z,3.60
2022-08-05T14:50:15.695Z,3.85
2022-08-05T15:00:20.454Z,4.45
2022-08-05T15:10:30.056Z,1.00
2022-08-05T15:20:31.605Z,1.02
2022-08-05T15:30:33.928Z,1.00
2022-08-05T15:40:58.697Z,0.73
2022-08-05T15:51:03.402Z,0.70
2022-08-05T16:01:16.891Z,0.85
2022-08-05T16:11:21.098Z,0.43
2022-08-05T16:22:00.734Z,0.50
2022-08-05T16:32:02.171Z,0.55
2022-08-05T16:42:27.732Z,0.63
2022-08-05T16:52:33.584Z,0.30
2022-08-05T17:02:35.491Z,0.40
2022-08-05T17:12:51.000Z,0.40
2022-08-05T17:22:55.481Z,0.35
2022-08-05T17:32:57.351Z,0.82
2022-08-05T17:42:58.769Z,0.20
2022-08-05T17:53:05.147Z,0.30
2022-08-05T18:03:06.632Z,2.25
2022-08-05T18:13:12.249Z,0.30
2022-08-05T18:23:14.336Z,0.30
2022-08-05T18:33:16.191Z,0.20
2022-08-05T18:43:23.853Z,0.38
2022-08-05T18:53:25.325Z,0.47
2022-08-05T19:03:53.506Z,0.32
2022-08-05T19:13:49.255Z,0.40
2022-08-05T19:24:08.981Z,0.47
2022-08-05T19:34:14.244Z,0.50
2022-08-05T19:44:20.158Z,0.50
2022-08-05T20:04:32.770Z,0.57
2022-08-05T20:14:35.005Z,0.50
2022-08-05T20:34:39.339Z,0.68
2022-08-05T20:44:42.768Z,0.70
2022-08-05T20:55:15.891Z,0.90
2022-08-05T21:05:07.259Z,1.00
2022-08-05T21:15:10.926Z,0.88
2022-08-05T21:35:18.171Z,0.75
2022-08-05T21:45:56.597Z,1.13
2022-08-05T21:56:05.287Z,1.30
2022-08-05T22:06:11.658Z,1.10
2022-08-05T22:26:34.383Z,0.95
2022-08-05T22:36:36.847Z,1.05
2022-08-05T22:46:40.902Z,1.10
2022-08-05T22:56:42.808Z,1.48
2022-08-05T23:06:44.225Z,1.20
2022-08-05T23:16:46.881Z,1.17
2022-08-05T23:26:53.584Z,0.90
2022-08-05T23:36:55.032Z,0.87
2022-08-05T23:46:56.689Z,1.00
2022-08-05T23:57:03.856Z,0.98
